Edford, Illinois
Current Conditions -  °F | °C
As of 12:07 PM on Sunday 25 Jan 2015 (Local Time) from KMLI Reporting Station
Light Snow Light Snow  
Wind Chill: 19°   Ceiling: 1300
Heat Index: 30°   Visibility: 3mi
Dew Point: 26°   Wind: 15mph
Humidity: 85%   Direction: 40°NE
Pressure: 29.81"   Gusts: NA
Location:  41.4828°N, 90.1801°W
Report Text: KMLI 251807Z 04013KT 3SM -SN BR OVC013 M01/M03 A2981 RMK AO2 P0000 T10111033 $
Loading
Personal Weather Stations






























Interactive Weather Map New forecast layout! Learn more

10-Day Weather Forecast

Advertisements
Track Severe Weather on mobile